Time;durP1;ratioP1;P1;durP2;ratioP2;P2;SDS_P1;SDS_P2;PMS_P1;PMS_P2;Temp;Humidity;BMP_temperature;BMP_pressure;BME280_temperature;BME280_humidity;BME280_pressure;Samples;Min_cycle;Max_cycle;Signal;HPM_P1;HPM_P2
2022/08/15 00:00:12;;;;;;;11.27;10.27;;;;;;;21.94;55.55;99772.69;5074482;28;20132;-30
2022/08/15 00:02:43;;;;;;;11.82;10.82;;;;;;;21.87;55.13;99762.38;5068303;28;20032;-30
2022/08/15 00:05:10;;;;;;;12.05;11.02;;;;;;;21.83;55.91;99766.25;5069526;28;20028;-30
2022/08/15 00:07:36;;;;;;;11.07;10.07;;;;;;;21.80;55.31;99753.06;5077251;28;20036;-30
2022/08/15 00:10:02;;;;;;;11.23;10.23;;;;;;;21.79;55.10;99762.94;5067243;28;20029;-30
2022/08/15 00:12:28;;;;;;;11.75;10.48;;;;;;;21.75;55.47;99753.41;5073786;28;20108;-30
2022/08/15 00:14:53;;;;;;;11.48;10.57;;;;;;;21.74;55.84;99757.03;5069523;28;20030;-30
2022/08/15 00:17:20;;;;;;;12.00;11.00;;;;;;;21.71;56.11;99759.91;5066710;28;20024;-30
2022/08/15 00:19:47;;;;;;;12.30;11.25;;;;;;;21.69;55.89;99753.78;5071963;28;20031;-30
2022/08/15 00:22:17;;;;;;;11.80;10.82;;;;;;;21.68;56.00;99752.09;5061086;28;20490;-30
2022/08/15 00:24:43;;;;;;;11.82;10.82;;;;;;;21.67;56.04;99761.94;5071417;28;20021;-30
2022/08/15 00:27:09;;;;;;;11.98;10.98;;;;;;;21.65;56.61;99749.63;5071212;28;20085;-30
2022/08/15 00:29:35;;;;;;;11.82;10.85;;;;;;;21.61;56.24;99762.38;5070571;28;20028;-30
2022/08/15 00:32:03;;;;;;;12.93;11.80;;;;;;;21.62;56.23;99752.50;5072204;28;20192;-30
2022/08/15 00:34:28;;;;;;;11.93;10.93;;;;;;;21.58;56.48;99757.25;5073426;28;20021;-30
2022/08/15 00:36:53;;;;;;;11.43;10.43;;;;;;;21.56;56.69;99764.53;5071918;28;20043;-30
2022/08/15 00:39:22;;;;;;;12.02;11.02;;;;;;;21.53;56.58;99764.75;5071971;28;20033;-30
2022/08/15 00:41:50;;;;;;;12.55;11.25;;;;;;;21.53;56.75;99762.06;5071944;28;20025;-30
2022/08/15 00:44:34;;;;;;;11.82;10.82;;;;;;;21.53;56.29;99757.56;5071640;28;20040;-30
2022/08/15 00:47:07;;;;;;;12.00;11.00;;;;;;;21.49;56.34;99758.75;5066188;28;20032;-30
2022/08/15 00:49:33;;;;;;;12.30;10.77;;;;;;;21.44;56.66;99749.31;5071731;28;20454;-30
2022/08/15 00:52:05;;;;;;;12.15;10.75;;;;;;;21.41;56.76;99756.59;5068146;28;20035;-30
2022/08/15 00:55:06;;;;;;;11.43;10.43;;;;;;;21.39;56.99;99744.25;5052256;28;20564;-30
2022/08/15 00:57:36;;;;;;;11.65;10.65;;;;;;;21.36;57.08;99748.00;5070247;28;20059;-30
2022/08/15 01:00:09;;;;;;;12.23;11.23;;;;;;;21.34;56.71;99741.03;5055241;28;20034;-30
2022/08/15 01:02:36;;;;;;;12.25;11.23;;;;;;;21.33;56.40;99741.97;5065300;28;20078;-29
2022/08/15 01:05:07;;;;;;;13.27;11.98;;;;;;;21.30;56.41;99743.06;5081485;28;20434;-30
2022/08/15 01:07:32;;;;;;;;;;;;;;;21.29;56.90;99746.72;5070992;28;20028;-30
2022/08/15 01:09:57;;;;;;;12.50;11.27;;;;;;;21.26;56.53;99741.56;5071087;28;19912;-30
2022/08/15 01:12:25;;;;;;;11.82;10.90;;;;;;;21.19;56.70;99749.16;5072197;28;20030;-30
2022/08/15 01:14:54;;;;;;;12.63;11.35;;;;;;;21.13;56.89;99742.41;5073223;28;20016;-30
2022/08/15 01:17:20;;;;;;;11.93;10.82;;;;;;;21.12;57.36;99740.69;5069899;28;20566;-30
2022/08/15 01:20:00;;;;;;;12.23;11.15;;;;;;;21.06;57.29;99741.09;5073116;28;20067;-30
2022/08/15 01:22:54;;;;;;;12.45;11.35;;;;;;;21.04;57.27;99742.19;5069780;28;20020;-30
2022/08/15 01:25:27;;;;;;;12.13;11.13;;;;;;;21.04;57.62;99736.81;5070450;28;20030;-30
2022/08/15 01:27:58;;;;;;;12.13;11.05;;;;;;;21.02;57.34;99750.31;5066948;28;20024;-30
2022/08/15 01:30:28;;;;;;;10.82;9.93;;;;;;;20.97;57.33;99752.47;5071656;28;20024;-30
2022/08/15 01:32:54;;;;;;;12.07;11.05;;;;;;;20.92;57.41;99738.50;5074647;28;20055;-30
2022/08/15 01:35:19;;;;;;;12.50;11.40;;;;;;;20.92;57.73;99742.06;5071375;28;20474;-30
2022/08/15 01:37:45;;;;;;;12.10;10.98;;;;;;;20.90;57.34;99743.97;5070443;28;20445;-30
2022/08/15 01:40:17;;;;;;;11.95;11.02;;;;;;;20.85;57.68;99738.91;5071893;28;20029;-30
2022/08/15 01:42:45;;;;;;;11.77;10.77;;;;;;;20.84;57.99;99739.00;5070220;28;20020;-30
2022/08/15 01:45:16;;;;;;;12.10;11.10;;;;;;;20.79;57.64;99738.44;5069467;28;20055;-30
2022/08/15 01:47:47;;;;;;;;;;;;;;;20.74;57.96;99736.09;5064554;28;20535;-30
2022/08/15 01:50:17;;;;;;;11.65;10.52;;;;;;;20.75;57.77;99737.78;5072228;28;19991;-30
2022/08/15 01:52:53;;;;;;;12.10;11.10;;;;;;;20.74;57.58;99733.41;5062708;28;20433;-30
2022/08/15 01:55:27;;;;;;;11.73;10.68;;;;;;;20.69;57.78;99738.19;5049700;28;20364;-30
2022/08/15 01:57:52;;;;;;;12.18;11.07;;;;;;;20.68;57.83;99732.00;5071268;28;20103;-30
2022/08/15 02:00:20;;;;;;;12.57;11.43;;;;;;;20.68;57.75;99741.84;5072140;28;20040;-30
2022/08/15 02:02:45;;;;;;;12.60;11.40;;;;;;;20.66;57.89;99744.63;5072202;28;20060;-30
2022/08/15 02:05:11;;;;;;;12.65;11.55;;;;;;;20.60;57.69;99740.53;5069867;28;20052;-30
2022/08/15 02:07:36;;;;;;;12.27;11.20;;;;;;;20.59;57.61;99738.81;5071418;28;20416;-30
2022/08/15 02:10:04;;;;;;;12.30;11.10;;;;;;;20.59;57.94;99746.00;5074228;28;20043;-30
2022/08/15 02:12:34;;;;;;;11.68;10.68;;;;;;;20.53;58.14;99744.56;5079699;28;20064;-30
2022/08/15 02:15:02;;;;;;;12.82;11.70;;;;;;;20.48;58.19;99741.34;5070657;28;20402;-30
2022/08/15 02:17:28;;;;;;;12.40;11.20;;;;;;;20.50;58.78;99742.97;5070246;28;20020;-30
2022/08/15 02:19:53;;;;;;;12.75;11.75;;;;;;;20.44;58.27;99745.19;5070123;28;20078;-30
2022/08/15 02:22:22;;;;;;;12.52;11.32;;;;;;;20.38;58.22;99752.66;5053439;28;20393;-30
2022/08/15 02:24:47;;;;;;;12.60;11.27;;;;;;;20.36;57.87;99738.50;5080391;28;20133;-29
2022/08/15 02:27:13;;;;;;;12.32;11.35;;;;;;;20.34;58.24;99731.56;5071398;28;20129;-29
2022/08/15 02:29:40;;;;;;;11.75;10.65;;;;;;;20.28;58.16;99731.94;5066863;28;20033;-29
2022/08/15 02:32:09;;;;;;;12.63;11.45;;;;;;;20.29;58.29;99729.16;5070972;28;20241;-29
2022/08/15 02:34:34;;;;;;;12.48;11.27;;;;;;;20.27;58.39;99735.59;5069116;28;20035;-29
2022/08/15 02:37:04;;;;;;;12.77;11.68;;;;;;;20.24;58.24;99739.31;5055322;28;20108;-29
2022/08/15 02:39:29;;;;;;;12.90;11.70;;;;;;;20.21;57.78;99735.00;5070807;28;20494;-29
2022/08/15 02:41:55;;;;;;;12.13;11.07;;;;;;;20.16;57.62;99746.97;5068502;28;20079;-30
2022/08/15 02:44:21;;;;;;;12.65;11.50;;;;;;;20.09;57.58;99742.03;5065757;28;20025;-29
2022/08/15 02:46:49;;;;;;;12.32;11.13;;;;;;;20.06;57.97;99741.34;5071495;28;20066;-29
2022/08/15 02:49:15;;;;;;;12.48;11.38;;;;;;;20.01;58.10;99744.34;5071555;28;20079;-29
2022/08/15 02:51:42;;;;;;;12.88;11.77;;;;;;;20.02;58.29;99740.69;5070741;28;20506;-29
2022/08/15 02:54:09;;;;;;;12.02;11.02;;;;;;;19.96;58.28;99735.69;5074460;28;20036;-29
2022/08/15 02:56:35;;;;;;;12.07;10.95;;;;;;;19.95;58.17;99736.66;5070039;28;20042;-29
2022/08/15 02:59:00;;;;;;;12.23;11.20;;;;;;;19.93;58.19;99730.53;5070002;28;20179;-29
2022/08/15 03:01:26;;;;;;;12.15;10.95;;;;;;;19.92;58.06;99731.50;5068965;28;20056;-29
2022/08/15 03:03:54;;;;;;;12.30;11.20;;;;;;;19.84;58.10;99730.16;5061283;28;20486;-29
2022/08/15 03:06:24;;;;;;;11.70;10.70;;;;;;;19.84;58.30;99727.47;5061262;28;20036;-29
2022/08/15 03:08:50;;;;;;;13.07;11.95;;;;;;;19.80;58.36;99731.31;5074854;28;20097;-29
2022/08/15 03:11:17;;;;;;;12.73;11.45;;;;;;;19.81;57.96;99718.81;5077639;28;20077;-29
2022/08/15 03:13:43;;;;;;;12.13;11.07;;;;;;;19.77;58.42;99723.47;5067995;28;20028;-29
2022/08/15 03:16:09;;;;;;;11.95;10.85;;;;;;;19.74;58.50;99721.03;5071838;28;20383;-29
2022/08/15 03:18:36;;;;;;;13.60;11.48;;;;;;;19.70;58.53;99717.66;5074976;28;20028;-29
2022/08/15 03:21:06;;;;;;;12.40;11.20;;;;;;;19.71;58.47;99722.03;5073706;28;20036;-29
2022/08/15 03:23:32;;;;;;;12.77;11.68;;;;;;;19.68;58.49;99716.03;5070820;28;20027;-29
2022/08/15 03:25:59;;;;;;;12.98;11.77;;;;;;;19.71;58.60;99715.84;5070175;28;20398;-29
2022/08/15 03:28:29;;;;;;;12.88;11.82;;;;;;;19.64;58.05;99709.16;5073798;28;20038;-29
2022/08/15 03:30:56;;;;;;;13.83;12.57;;;;;;;19.60;58.36;99720.06;5069920;28;20031;-29
2022/08/15 03:33:21;;;;;;;13.00;11.85;;;;;;;19.59;58.22;99717.47;5068448;28;20025;-29
2022/08/15 03:35:48;;;;;;;14.38;12.10;;;;;;;19.54;58.27;99720.41;5071228;28;20024;-29
2022/08/15 03:38:14;;;;;;;13.02;11.82;;;;;;;19.55;58.43;99714.13;5071874;28;20501;-29
2022/08/15 03:40:41;;;;;;;11.98;10.98;;;;;;;19.54;58.50;99706.22;5067987;28;20032;-29
2022/08/15 03:43:11;;;;;;;13.40;12.23;;;;;;;19.54;58.56;99704.38;5071908;28;20374;-29
2022/08/15 03:45:36;;;;;;;13.13;11.77;;;;;;;19.53;58.47;99705.34;5070927;28;20079;-29
2022/08/15 03:48:02;;;;;;;11.65;10.65;;;;;;;19.53;58.36;99709.81;5071460;28;20032;-29
2022/08/15 03:50:29;;;;;;;13.10;11.77;;;;;;;19.48;58.70;99704.78;5072154;28;20078;-29
2022/08/15 03:53:01;;;;;;;12.32;11.23;;;;;;;19.50;58.37;99708.19;5072585;28;20490;-29
2022/08/15 03:55:28;;;;;;;13.52;12.43;;;;;;;19.46;58.44;99698.66;5069363;28;20549;-29
2022/08/15 03:57:54;;;;;;;13.00;11.70;;;;;;;19.42;58.57;99705.16;5073898;28;20025;-29
2022/08/15 04:00:26;;;;;;;12.77;11.48;;;;;;;19.42;58.64;99699.81;5071937;28;20111;-29
2022/08/15 04:02:53;;;;;;;12.93;11.82;;;;;;;19.46;58.95;99696.84;5074027;28;20024;-29
2022/08/15 04:05:19;;;;;;;13.57;12.38;;;;;;;19.43;59.10;99696.16;5073395;28;20127;-28
2022/08/15 04:07:45;;;;;;;12.00;10.98;;;;;;;19.43;58.94;99696.16;5082253;28;20033;-29
2022/08/15 04:10:16;;;;;;;12.32;11.23;;;;;;;19.45;59.24;99699.63;5075222;28;20478;-29
2022/08/15 04:12:43;;;;;;;12.77;11.68;;;;;;;19.42;58.77;99703.34;5071618;28;20052;-29
2022/08/15 04:15:12;;;;;;;12.85;11.73;;;;;;;19.42;58.46;99707.81;5071754;28;20115;-29
2022/08/15 04:17:37;;;;;;;12.35;11.15;;;;;;;19.41;58.74;99708.78;5076163;28;20378;-28
2022/08/15 04:20:04;;;;;;;13.00;11.70;;;;;;;19.43;58.99;99706.84;5078078;28;20027;-29
2022/08/15 04:22:36;;;;;;;13.05;11.95;;;;;;;19.40;59.60;99707.06;5074871;28;20115;-28
2022/08/15 04:25:13;;;;;;;12.43;11.13;;;;;;;19.37;59.22;99708.09;5076324;28;20033;-29
2022/08/15 04:27:40;;;;;;;11.88;10.77;;;;;;;19.39;59.01;99710.69;5075495;28;20032;-29
2022/08/15 04:30:08;;;;;;;13.48;12.32;;;;;;;19.39;59.01;99710.69;5073070;28;20090;-28
2022/08/15 04:32:33;;;;;;;13.73;12.38;;;;;;;19.43;59.49;99704.19;5070544;28;20031;-29
2022/08/15 04:34:59;;;;;;;12.45;11.35;;;;;;;19.47;59.80;99708.38;5081873;28;20389;-28
2022/08/15 04:37:25;;;;;;;12.93;11.80;;;;;;;19.46;59.38;99706.69;5079247;28;20058;-29
2022/08/15 04:39:51;;;;;;;12.75;11.75;;;;;;;19.45;58.94;99710.31;5083135;28;20555;-28
2022/08/15 04:42:19;;;;;;;12.82;11.63;;;;;;;19.49;59.15;99717.19;5080819;28;20115;-29
2022/08/15 04:44:45;;;;;;;12.55;11.55;;;;;;;19.51;58.87;99704.59;5067551;28;20147;-29
2022/08/15 04:47:11;;;;;;;12.68;11.48;;;;;;;19.46;59.01;99706.69;5071847;28;20115;-29
2022/08/15 04:49:36;;;;;;;13.50;12.27;;;;;;;19.44;59.12;99698.75;5073648;28;20521;-29
2022/08/15 04:52:13;;;;;;;13.23;11.95;;;;;;;19.48;59.24;99702.94;5070799;28;20073;-29
2022/08/15 04:54:39;;;;;;;12.70;11.57;;;;;;;19.49;59.01;99702.00;5082543;28;20025;-28
2022/08/15 04:57:05;;;;;;;13.10;11.90;;;;;;;19.48;58.65;99705.63;5070493;28;20150;-29
2022/08/15 04:59:31;;;;;;;12.68;11.52;;;;;;;19.47;58.80;99708.38;5077912;28;20394;-29
2022/08/15 05:01:56;;;;;;;12.85;11.63;;;;;;;19.52;58.93;99708.09;5071363;28;20032;-29
2022/08/15 05:04:22;;;;;;;13.27;11.77;;;;;;;19.52;59.01;99708.97;5073763;28;20024;-29
2022/08/15 05:06:48;;;;;;;12.82;11.73;;;;;;;19.53;58.98;99713.38;5067886;28;20025;-28
2022/08/15 05:09:13;;;;;;;12.80;11.63;;;;;;;19.52;58.91;99711.66;5073231;28;20046;-29
2022/08/15 05:11:38;;;;;;;12.63;11.40;;;;;;;19.53;58.75;99702.66;5071802;28;20187;-29
2022/08/15 05:14:04;;;;;;;12.23;11.23;;;;;;;19.57;59.30;99706.03;5087844;28;20032;-29
2022/08/15 05:16:30;;;;;;;12.50;11.23;;;;;;;19.52;59.67;99698.28;5085890;28;20043;-29
2022/08/15 05:18:55;;;;;;;13.63;11.90;;;;;;;19.59;60.76;99690.72;5085286;28;20062;-29
2022/08/15 05:21:21;;;;;;;13.07;11.85;;;;;;;19.60;59.75;99692.44;5055632;28;20028;-28
2022/08/15 05:23:47;;;;;;;12.85;11.68;;;;;;;19.57;59.39;99693.50;5067107;28;20041;-29
2022/08/15 05:26:12;;;;;;;12.10;11.00;;;;;;;19.65;59.89;99690.34;5056101;28;20060;-29
2022/08/15 05:28:38;;;;;;;12.45;11.38;;;;;;;19.64;59.41;99682.44;5075135;28;20032;-29
2022/08/15 05:31:06;;;;;;;12.50;11.40;;;;;;;19.59;59.10;99683.56;5076207;28;20024;-29
2022/08/15 05:33:31;;;;;;;13.02;11.82;;;;;;;19.69;59.79;99689.19;5064056;28;20031;-29
2022/08/15 05:35:59;;;;;;;12.80;11.70;;;;;;;19.64;59.45;99682.44;5074399;28;20035;-29
2022/08/15 05:38:48;;;;;;;12.73;11.60;;;;;;;19.72;59.17;99691.69;5076530;28;20064;-29
2022/08/15 05:41:27;;;;;;;12.45;11.35;;;;;;;19.72;59.87;99685.47;5083051;28;20090;-28
2022/08/15 05:44:22;;;;;;;12.98;11.57;;;;;;;19.80;59.72;99699.22;5079827;28;20444;-29
2022/08/15 05:47:04;;;;;;;11.68;10.73;;;;;;;19.83;59.80;99680.28;5063916;28;20036;-29
2022/08/15 05:49:41;;;;;;;12.57;11.52;;;;;;;19.87;59.24;99679.13;5059573;28;20036;-29
2022/08/15 05:52:37;;;;;;;12.38;11.25;;;;;;;19.90;59.08;99683.44;5067003;28;20027;-29
2022/08/15 05:55:30;;;;;;;12.43;11.40;;;;;;;19.97;58.82;99681.19;5066315;28;20028;-29
2022/08/15 05:57:56;;;;;;;12.45;11.35;;;;;;;20.02;59.13;99687.16;5076607;28;20489;-29
2022/08/15 06:00:24;;;;;;;13.82;12.57;;;;;;;20.05;59.11;99680.75;5068642;28;20104;-28
2022/08/15 06:02:59;;;;;;;12.82;11.70;;;;;;;20.04;60.41;99682.56;5070626;28;20078;-29
2022/08/15 06:05:38;;;;;;;13.10;11.85;;;;;;;20.10;59.90;99679.50;5078304;28;20060;-28
2022/08/15 06:08:17;;;;;;;12.13;11.13;;;;;;;20.18;58.78;99680.81;5074696;28;20115;-28
2022/08/15 06:10:50;;;;;;;13.43;12.18;;;;;;;20.23;59.58;99678.69;5069839;28;20103;-29
2022/08/15 06:13:22;;;;;;;13.07;11.88;;;;;;;20.23;59.26;99676.00;5069630;28;20021;-29
2022/08/15 06:15:58;;;;;;;13.43;12.07;;;;;;;20.28;59.90;99676.59;5067811;28;20504;-29
2022/08/15 06:18:25;;;;;;;13.02;11.88;;;;;;;20.34;58.94;99678.84;5078191;28;20043;-29
2022/08/15 06:21:05;;;;;;;12.05;11.05;;;;;;;20.38;58.79;99676.84;5078017;28;20036;-29
2022/08/15 06:23:58;;;;;;;12.52;11.50;;;;;;;20.45;58.66;99677.28;5088956;28;20036;-29
2022/08/15 06:26:58;;;;;;;12.45;11.32;;;;;;;20.48;58.59;99680.59;5077656;28;20478;-28
2022/08/15 06:30:02;;;;;;;12.18;11.00;;;;;;;20.50;58.76;99692.06;5085680;28;20053;-29
2022/08/15 06:32:46;;;;;;;12.45;11.35;;;;;;;20.55;58.88;99690.91;5064465;28;20028;-29
2022/08/15 06:35:19;;;;;;;13.38;12.13;;;;;;;20.58;58.72;99693.38;5077802;28;20035;-29
2022/08/15 06:37:58;;;;;;;13.07;11.88;;;;;;;20.62;58.56;99677.00;5071108;28;20024;-29
2022/08/15 06:40:44;;;;;;;13.00;12.00;;;;;;;20.67;59.04;99671.31;5081627;28;20113;-29
2022/08/15 06:43:11;;;;;;;13.00;11.75;;;;;;;20.73;58.64;99678.09;5093386;28;20043;-28
2022/08/15 06:45:39;;;;;;;12.57;11.48;;;;;;;20.77;58.83;99671.56;5082381;28;20043;-29
2022/08/15 06:48:08;;;;;;;13.15;11.95;;;;;;;20.84;58.54;99678.22;5073961;28;20438;-29
2022/08/15 06:50:39;;;;;;;13.77;12.48;;;;;;;20.91;58.61;99667.13;5083550;28;20070;-29
2022/08/15 06:53:18;;;;;;;12.68;11.45;;;;;;;20.99;58.26;99671.00;5085546;28;20070;-29
2022/08/15 06:55:52;;;;;;;14.48;13.07;;;;;;;21.11;59.56;99666.59;5068498;28;20547;-28
2022/08/15 06:58:32;;;;;;;13.50;12.23;;;;;;;21.20;59.95;99661.56;5082130;28;20027;-28
2022/08/15 07:01:02;;;;;;;13.70;12.50;;;;;;;21.28;60.46;99664.56;5076427;28;20116;-28
2022/08/15 07:03:38;;;;;;;13.20;12.00;;;;;;;21.41;58.13;99662.72;5079816;28;20025;-29
2022/08/15 07:06:04;;;;;;;14.52;12.63;;;;;;;21.50;60.53;99663.03;5074999;28;20083;-29
2022/08/15 07:08:37;;;;;;;15.27;13.80;;;;;;;21.63;60.52;99671.91;5067985;28;20500;-29
2022/08/15 07:11:16;;;;;;;13.65;12.35;;;;;;;21.78;59.51;99661.09;5084174;28;20024;-29
2022/08/15 07:13:45;;;;;;;13.50;12.18;;;;;;;21.94;59.26;99668.84;5074756;28;20085;-29
2022/08/15 07:16:18;;;;;;;17.20;13.73;;;;;;;22.02;60.21;99654.88;5072662;28;20044;-29
2022/08/15 07:18:47;;;;;;;15.35;13.90;;;;;;;22.14;59.76;99659.34;5078855;28;20016;-29
2022/08/15 07:21:17;;;;;;;18.00;14.35;;;;;;;22.24;59.78;99662.19;5063576;28;20036;-29
2022/08/15 07:24:05;;;;;;;19.60;14.32;;;;;;;22.45;60.20;99668.75;5082655;28;20482;-29
2022/08/15 07:26:41;;;;;;;17.63;13.70;;;;;;;22.54;59.52;99673.47;5094340;28;20115;-29
2022/08/15 07:29:13;;;;;;;20.38;13.50;;;;;;;22.66;59.70;99666.31;5083367;28;20048;-29
2022/08/15 07:31:43;;;;;;;21.73;14.18;;;;;;;22.82;58.92;99671.38;5079861;28;20021;-29
2022/08/15 07:34:22;;;;;;;15.43;12.45;;;;;;;22.99;58.50;99663.81;5085639;28;20086;-29
2022/08/15 07:36:55;;;;;;;20.00;13.85;;;;;;;23.04;58.93;99665.19;5080937;28;20028;-29
2022/08/15 07:39:37;;;;;;;14.32;12.95;;;;;;;23.23;58.88;99652.09;5074658;28;20395;-29
2022/08/15 07:42:13;;;;;;;23.92;14.82;;;;;;;23.37;59.14;99649.22;5079254;28;20032;-28
2022/08/15 07:44:49;;;;;;;32.00;16.52;;;;;;;23.56;58.59;99650.44;5056127;28;20073;-29
2022/08/15 07:47:20;;;;;;;23.85;15.50;;;;;;;23.70;58.49;99654.69;5074157;28;20490;-29
2022/08/15 07:49:58;;;;;;;19.88;13.57;;;;;;;23.90;57.79;99654.91;5076739;28;20032;-29
2022/08/15 07:52:24;;;;;;;14.60;12.32;;;;;;;24.12;57.42;99647.78;5082035;28;20036;-29
2022/08/15 07:54:58;;;;;;;13.98;11.75;;;;;;;24.34;56.86;99646.88;5058495;28;20020;-29
2022/08/15 07:57:25;;;;;;;18.00;12.27;;;;;;;24.54;56.76;99647.03;5080205;28;20027;-29
2022/08/15 08:00:11;;;;;;;18.95;12.43;;;;;;;24.72;56.41;99645.47;5082939;28;20102;-29
2022/08/15 08:02:53;;;;;;;12.27;10.55;;;;;;;24.91;55.78;99643.91;5079526;28;20035;-29
2022/08/15 08:05:21;;;;;;;15.60;11.13;;;;;;;25.05;55.64;99634.63;5094443;28;20020;-29
2022/08/15 08:07:49;;;;;;;14.50;11.38;;;;;;;25.26;55.35;99635.56;5055900;28;20025;-29
2022/08/15 08:10:29;;;;;;;13.38;11.45;;;;;;;25.36;54.83;99636.47;5053822;28;20025;-29
2022/08/15 08:13:13;;;;;;;12.38;11.07;;;;;;;25.48;54.59;99640.75;5055181;28;20535;-29
2022/08/15 08:15:41;;;;;;;16.92;11.13;;;;;;;25.63;54.42;99632.31;5062604;28;20024;-29
2022/08/15 08:18:15;;;;;;;11.88;10.55;;;;;;;25.87;54.04;99639.19;5081542;28;20023;-29
2022/08/15 08:20:47;;;;;;;12.00;10.73;;;;;;;26.03;53.70;99640.50;5089087;28;20038;-29
2022/08/15 08:23:30;;;;;;;11.05;9.95;;;;;;;26.07;53.61;99644.66;5086806;28;20020;-29
2022/08/15 08:26:17;;;;;;;12.75;10.20;;;;;;;26.24;53.43;99633.13;5075445;28;20081;-29
2022/08/15 08:28:55;;;;;;;14.05;10.63;;;;;;;26.33;52.81;99633.31;5076935;28;20031;-29
2022/08/15 08:31:28;;;;;;;11.55;10.52;;;;;;;26.46;52.80;99631.19;5059257;28;20033;-29
2022/08/15 08:34:19;;;;;;;10.93;9.93;;;;;;;26.69;52.51;99624.59;5079014;28;20031;-29
2022/08/15 08:37:22;;;;;;;10.65;9.63;;;;;;;26.78;52.43;99621.88;5074892;28;20078;-29
2022/08/15 08:44:00;;;;;;;17.98;11.68;;;;;;;27.17;52.44;99630.09;5036815;28;20029;-29
2022/08/15 08:46:44;;;;;;;14.05;10.45;;;;;;;27.36;51.64;99624.59;5074128;28;20025;-29
2022/08/15 08:49:20;;;;;;;13.68;10.73;;;;;;;27.58;51.16;99625.22;5078714;28;20055;-30
2022/08/15 08:52:02;;;;;;;15.23;11.25;;;;;;;27.60;50.35;99634.00;5055282;28;20569;-29
2022/08/15 08:54:49;;;;;;;12.07;10.05;;;;;;;27.83;50.69;99628.22;5080375;28;20020;-29
2022/08/15 08:57:18;;;;;;;10.35;9.35;;;;;;;27.91;50.04;99622.03;5069239;28;20029;-29
2022/08/15 09:00:00;;;;;;;10.82;9.60;;;;;;;28.12;50.02;99621.75;5056563;28;20078;-29
2022/08/15 09:02:29;;;;;;;10.50;9.38;;;;;;;28.22;49.73;99624.38;5070879;28;20056;-29
2022/08/15 09:05:12;;;;;;;10.60;9.20;;;;;;;28.35;49.28;99621.31;5100757;28;20035;-29
2022/08/15 09:07:43;;;;;;;9.77;8.95;;;;;;;28.38;49.03;99620.13;5089109;28;20063;-29
2022/08/15 09:10:09;;;;;;;10.75;8.65;;;;;;;28.49;49.05;99614.47;5073722;28;20028;-29
2022/08/15 09:15:26;;;;;;;10.30;9.43;;;;;;;28.67;47.70;99613.56;5067319;28;20119;-29
2022/08/15 09:17:56;;;;;;;9.15;8.45;;;;;;;28.91;48.10;99614.78;5075851;28;20030;-29
2022/08/15 09:20:28;;;;;;;9.82;8.90;;;;;;;29.04;47.28;99623.34;5053156;28;20043;-29
2022/08/15 09:22:55;;;;;;;9.40;8.50;;;;;;;29.18;47.81;99621.06;5081065;28;20032;-29
2022/08/15 09:25:23;;;;;;;9.90;8.98;;;;;;;29.35;46.85;99610.28;5091426;28;20028;-29
2022/08/15 09:28:12;;;;;;;10.57;9.52;;;;;;;29.37;47.31;99621.84;5079902;28;20025;-29
2022/08/15 09:30:39;;;;;;;9.70;8.82;;;;;;;29.49;47.13;99617.81;5071515;28;20028;-29
2022/08/15 09:33:36;;;;;;;10.40;9.40;;;;;;;29.72;47.02;99614.53;5080205;28;20422;-29
2022/08/15 09:36:14;;;;;;;9.32;8.40;;;;;;;29.79;46.77;99621.00;5080513;28;20552;-29
2022/08/15 09:39:17;;;;;;;9.55;8.73;;;;;;;29.94;46.81;99617.63;5090389;28;20398;-29
2022/08/15 09:42:39;;;;;;;9.73;8.93;;;;;;;30.19;45.98;99614.97;5083317;28;20032;-29
2022/08/15 09:45:34;;;;;;;9.65;8.75;;;;;;;30.39;46.17;99617.34;5031756;28;20037;-29
2022/08/15 09:48:26;;;;;;;9.98;9.07;;;;;;;30.48;45.64;99613.63;5073116;28;20071;-29
2022/08/15 09:50:59;;;;;;;8.68;7.95;;;;;;;30.51;45.39;99607.81;5069068;28;20034;-30
2022/08/15 09:54:04;;;;;;;9.00;8.20;;;;;;;30.62;44.70;99603.06;5069962;28;20051;-29
2022/08/15 09:56:32;;;;;;;10.55;9.25;;;;;;;30.77;44.73;99600.53;5078798;28;20035;-29
2022/08/15 09:59:06;;;;;;;11.02;9.48;;;;;;;30.82;44.66;99599.00;5075356;28;20035;-30
2022/08/15 10:01:35;;;;;;;11.23;9.13;;;;;;;30.92;44.95;99597.94;5070752;28;20086;-30
2022/08/15 10:04:03;;;;;;;15.65;10.68;;;;;;;30.99;44.81;99593.50;5052512;28;20056;-29
2022/08/15 10:06:31;;;;;;;13.50;9.88;;;;;;;31.05;44.14;99592.81;5054792;28;20274;-29
2022/08/15 10:09:01;;;;;;;13.27;10.30;;;;;;;31.17;44.26;99584.28;5069885;28;20213;-30
2022/08/15 10:11:40;;;;;;;11.43;9.38;;;;;;;31.23;43.18;99586.28;5073126;28;20490;-29
2022/08/15 10:14:13;;;;;;;10.80;9.70;;;;;;;31.27;43.45;99579.44;5065855;28;20039;-29
2022/08/15 10:16:41;;;;;;;11.95;8.60;;;;;;;31.41;43.53;99575.16;5065302;28;20047;-29
2022/08/15 10:19:29;;;;;;;9.70;8.70;;;;;;;31.45;43.21;99572.94;5064998;28;20028;-29
2022/08/15 10:21:56;;;;;;;11.38;8.25;;;;;;;31.51;43.13;99574.97;5064338;28;20428;-29
2022/08/15 10:24:36;;;;;;;10.63;9.27;;;;;;;31.69;43.04;99574.69;5060028;28;20032;-29
2022/08/15 10:27:07;;;;;;;9.98;8.95;;;;;;;31.73;43.27;99564.25;5071104;28;20021;-30
2022/08/15 10:29:50;;;;;;;9.45;8.48;;;;;;;31.83;43.27;99561.28;5072077;28;20031;-30
2022/08/15 10:32:21;;;;;;;10.10;9.13;;;;;;;31.97;43.84;99559.72;5071202;28;20070;-30
2022/08/15 10:34:52;;;;;;;9.75;8.75;;;;;;;32.05;42.67;99559.66;5068708;28;20844;-30
2022/08/15 10:37:23;;;;;;;11.25;8.85;;;;;;;32.12;42.77;99555.16;5072890;28;20513;-30
2022/08/15 10:39:49;;;;;;;9.13;8.23;;;;;;;32.16;42.49;99554.78;5076700;28;20165;-30
2022/08/15 10:42:44;;;;;;;9.52;8.63;;;;;;;32.28;42.66;99552.47;5079767;28;20153;-30
2022/08/15 10:45:19;;;;;;;10.68;8.70;;;;;;;32.36;42.04;99547.78;5079125;28;20121;-30
2022/08/15 10:47:58;;;;;;;9.30;8.25;;;;;;;32.35;42.12;99542.50;5083890;28;20020;-30
2022/08/15 10:51:06;;;;;;;9.80;8.88;;;;;;;32.51;41.92;99547.00;5093036;28;20099;-30
2022/08/15 10:53:47;;;;;;;10.88;9.10;;;;;;;32.48;41.44;99542.75;5062320;28;20473;-30
2022/08/15 10:56:22;;;;;;;9.70;8.75;;;;;;;32.56;41.40;99538.25;5083050;28;20025;-30
2022/08/15 10:58:49;;;;;;;9.95;9.05;;;;;;;32.64;41.62;99528.09;5070967;28;20111;-30
2022/08/15 11:01:22;;;;;;;9.27;8.40;;;;;;;32.76;41.25;99524.91;5070736;28;20040;-30
2022/08/15 11:03:51;;;;;;;9.75;8.43;;;;;;;32.84;41.41;99519.34;5078426;28;20025;-30
2022/08/15 11:06:20;;;;;;;12.00;8.77;;;;;;;32.93;41.15;99513.78;5069254;28;20039;-30
2022/08/15 11:08:53;;;;;;;12.65;9.00;;;;;;;33.02;41.63;99523.59;5084769;28;20028;-30
2022/08/15 11:11:23;;;;;;;11.80;8.32;;;;;;;33.09;40.39;99516.34;5079226;28;20025;-30
2022/08/15 11:13:55;;;;;;;8.75;7.82;;;;;;;33.29;40.51;99518.47;5048219;28;20020;-30
2022/08/15 11:16:30;;;;;;;8.80;8.05;;;;;;;33.32;40.21;99511.78;5075618;28;20028;-30
2022/08/15 11:18:57;;;;;;;8.95;7.75;;;;;;;33.36;40.21;99505.75;5076312;28;20490;-30
2022/08/15 11:21:39;;;;;;;8.55;7.85;;;;;;;33.47;39.85;99509.84;5076981;28;20032;-30
2022/08/15 11:24:07;;;;;;;8.43;7.63;;;;;;;33.35;38.98;99512.25;5083767;28;20510;-30
2022/08/15 11:26:35;;;;;;;8.07;7.38;;;;;;;33.56;38.95;99507.84;5091303;28;20389;-29
2022/08/15 11:29:22;;;;;;;8.65;7.88;;;;;;;33.52;38.55;99503.81;5073656;28;20401;-29
2022/08/15 11:31:47;;;;;;;8.20;7.60;;;;;;;33.52;38.56;99507.41;5075168;28;20067;-29
2022/08/15 11:34:23;;;;;;;8.05;7.40;;;;;;;33.65;38.00;99497.66;5076619;28;20059;-29
2022/08/15 11:36:50;;;;;;;7.95;7.18;;;;;;;33.68;38.37;99499.16;5075500;28;20363;-29
2022/08/15 11:39:17;;;;;;;8.48;7.78;;;;;;;33.65;37.91;99493.03;5084074;28;20060;-29
2022/08/15 11:41:52;;;;;;;8.13;7.20;;;;;;;33.71;38.31;99490.56;5087289;28;20032;-29
2022/08/15 11:44:18;;;;;;;9.27;8.10;;;;;;;33.77;38.03;99478.84;5086449;28;20067;-29
2022/08/15 11:46:45;;;;;;;14.13;9.38;;;;;;;33.79;38.66;99480.34;5076295;28;20052;-29
2022/08/15 11:49:23;;;;;;;17.05;11.23;;;;;;;33.86;39.55;99474.09;5073310;28;20086;-29
2022/08/15 11:51:49;;;;;;;17.83;10.88;;;;;;;33.98;38.88;99472.53;5087901;28;20052;-29